sensor_id;sensor_type;location;lat;lon;timestamp;P1;durP1;ratioP1;P2;durP2;ratioP2
12818;SDS011;6474;53.474;9.894;2023-03-11T00:01:45;1.80;;;1.70;;
12818;SDS011;6474;53.474;9.894;2023-03-11T00:04:13;2.83;;;1.97;;
12818;SDS011;6474;53.474;9.894;2023-03-11T00:06:41;1.87;;;1.77;;
12818;SDS011;6474;53.474;9.894;2023-03-11T00:09:09;2.03;;;1.93;;
12818;SDS011;6474;53.474;9.894;2023-03-11T00:11:37;4.27;;;3.13;;
12818;SDS011;6474;53.474;9.894;2023-03-11T00:14:04;2.37;;;2.07;;
12818;SDS011;6474;53.474;9.894;2023-03-11T00:16:34;1.73;;;1.60;;
12818;SDS011;6474;53.474;9.894;2023-03-11T00:19:02;3.43;;;2.73;;
12818;SDS011;6474;53.474;9.894;2023-03-11T00:21:29;2.03;;;1.70;;
12818;SDS011;6474;53.474;9.894;2023-03-11T00:23:58;2.00;;;1.90;;
12818;SDS011;6474;53.474;9.894;2023-03-11T00:26:28;1.70;;;1.60;;
12818;SDS011;6474;53.474;9.894;2023-03-11T00:28:56;5.87;;;1.77;;
12818;SDS011;6474;53.474;9.894;2023-03-11T00:31:24;2.93;;;2.70;;
12818;SDS011;6474;53.474;9.894;2023-03-11T00:33:54;2.40;;;2.30;;
12818;SDS011;6474;53.474;9.894;2023-03-11T00:36:26;2.43;;;2.23;;
12818;SDS011;6474;53.474;9.894;2023-03-11T00:38:56;2.83;;;2.63;;
12818;SDS011;6474;53.474;9.894;2023-03-11T00:41:24;3.00;;;2.43;;
12818;SDS011;6474;53.474;9.894;2023-03-11T00:43:52;3.47;;;2.47;;
12818;SDS011;6474;53.474;9.894;2023-03-11T00:46:20;2.03;;;1.93;;
12818;SDS011;6474;53.474;9.894;2023-03-11T00:48:50;3.23;;;2.90;;
12818;SDS011;6474;53.474;9.894;2023-03-11T00:51:21;3.70;;;2.87;;
12818;SDS011;6474;53.474;9.894;2023-03-11T00:53:49;1.70;;;1.70;;
12818;SDS011;6474;53.474;9.894;2023-03-11T00:56:16;2.43;;;2.03;;
12818;SDS011;6474;53.474;9.894;2023-03-11T00:58:47;2.60;;;2.17;;
12818;SDS011;6474;53.474;9.894;2023-03-11T01:01:16;2.20;;;2.10;;
12818;SDS011;6474;53.474;9.894;2023-03-11T01:03:46;8.13;;;2.60;;
12818;SDS011;6474;53.474;9.894;2023-03-11T01:06:14;2.83;;;1.97;;
12818;SDS011;6474;53.474;9.894;2023-03-11T01:08:43;4.13;;;2.30;;
12818;SDS011;6474;53.474;9.894;2023-03-11T01:11:11;4.27;;;2.87;;
12818;SDS011;6474;53.474;9.894;2023-03-11T01:13:39;2.50;;;2.30;;
12818;SDS011;6474;53.474;9.894;2023-03-11T01:16:07;4.43;;;2.30;;
12818;SDS011;6474;53.474;9.894;2023-03-11T01:18:35;4.00;;;2.20;;
12818;SDS011;6474;53.474;9.894;2023-03-11T01:21:03;1.60;;;1.60;;
12818;SDS011;6474;53.474;9.894;2023-03-11T01:23:31;2.60;;;2.33;;
12818;SDS011;6474;53.474;9.894;2023-03-11T01:26:00;4.90;;;2.37;;
12818;SDS011;6474;53.474;9.894;2023-03-11T01:28:28;2.63;;;2.43;;
12818;SDS011;6474;53.474;9.894;2023-03-11T01:30:56;1.70;;;1.60;;
12818;SDS011;6474;53.474;9.894;2023-03-11T01:33:23;1.83;;;1.73;;
12818;SDS011;6474;53.474;9.894;2023-03-11T01:35:51;2.37;;;2.20;;
12818;SDS011;6474;53.474;9.894;2023-03-11T01:38:19;1.70;;;1.60;;
12818;SDS011;6474;53.474;9.894;2023-03-11T01:40:48;2.17;;;1.80;;
12818;SDS011;6474;53.474;9.894;2023-03-11T01:43:38;2.63;;;2.33;;
12818;SDS011;6474;53.474;9.894;2023-03-11T01:46:14;1.93;;;1.83;;
12818;SDS011;6474;53.474;9.894;2023-03-11T01:48:44;0.97;;;0.97;;
12818;SDS011;6474;53.474;9.894;2023-03-11T01:51:14;17.23;;;2.60;;
12818;SDS011;6474;53.474;9.894;2023-03-11T01:53:44;1.63;;;1.53;;
12818;SDS011;6474;53.474;9.894;2023-03-11T01:56:13;1.70;;;1.60;;
12818;SDS011;6474;53.474;9.894;2023-03-11T01:58:43;6.57;;;2.80;;
12818;SDS011;6474;53.474;9.894;2023-03-11T02:01:15;3.10;;;2.87;;
12818;SDS011;6474;53.474;9.894;2023-03-11T02:03:43;4.83;;;2.97;;
12818;SDS011;6474;53.474;9.894;2023-03-11T02:06:11;1.93;;;1.83;;
12818;SDS011;6474;53.474;9.894;2023-03-11T02:08:42;2.47;;;2.27;;
12818;SDS011;6474;53.474;9.894;2023-03-11T02:11:12;2.30;;;1.93;;
12818;SDS011;6474;53.474;9.894;2023-03-11T02:13:44;2.33;;;2.23;;
12818;SDS011;6474;53.474;9.894;2023-03-11T02:16:12;2.83;;;2.57;;
12818;SDS011;6474;53.474;9.894;2023-03-11T02:18:40;2.17;;;2.07;;
12818;SDS011;6474;53.474;9.894;2023-03-11T02:21:12;2.57;;;2.07;;
12818;SDS011;6474;53.474;9.894;2023-03-11T02:23:49;1.37;;;1.37;;
12818;SDS011;6474;53.474;9.894;2023-03-11T02:26:23;3.73;;;1.67;;
12818;SDS011;6474;53.474;9.894;2023-03-11T02:28:58;3.20;;;2.57;;
12818;SDS011;6474;53.474;9.894;2023-03-11T02:31:26;2.73;;;2.00;;
12818;SDS011;6474;53.474;9.894;2023-03-11T02:33:55;4.17;;;2.30;;
12818;SDS011;6474;53.474;9.894;2023-03-11T02:36:29;3.03;;;2.83;;
12818;SDS011;6474;53.474;9.894;2023-03-11T02:39:01;2.83;;;2.60;;
12818;SDS011;6474;53.474;9.894;2023-03-11T02:41:30;3.17;;;2.87;;
12818;SDS011;6474;53.474;9.894;2023-03-11T02:44:00;3.57;;;3.27;;
12818;SDS011;6474;53.474;9.894;2023-03-11T02:46:31;3.77;;;3.17;;
12818;SDS011;6474;53.474;9.894;2023-03-11T02:48:59;4.00;;;3.60;;
12818;SDS011;6474;53.474;9.894;2023-03-11T02:51:27;11.20;;;3.77;;
12818;SDS011;6474;53.474;9.894;2023-03-11T02:53:56;4.23;;;3.57;;
12818;SDS011;6474;53.474;9.894;2023-03-11T02:56:27;4.13;;;3.70;;
12818;SDS011;6474;53.474;9.894;2023-03-11T02:58:55;3.13;;;2.70;;
12818;SDS011;6474;53.474;9.894;2023-03-11T03:01:24;3.17;;;2.53;;
12818;SDS011;6474;53.474;9.894;2023-03-11T03:03:52;4.23;;;3.37;;
12818;SDS011;6474;53.474;9.894;2023-03-11T03:06:20;3.03;;;2.83;;
12818;SDS011;6474;53.474;9.894;2023-03-11T03:08:48;2.77;;;2.63;;
12818;SDS011;6474;53.474;9.894;2023-03-11T03:11:16;1.57;;;1.47;;
12818;SDS011;6474;53.474;9.894;2023-03-11T03:13:44;2.13;;;2.03;;
12818;SDS011;6474;53.474;9.894;2023-03-11T03:16:12;2.07;;;1.97;;
12818;SDS011;6474;53.474;9.894;2023-03-11T03:18:41;1.30;;;1.10;;
12818;SDS011;6474;53.474;9.894;2023-03-11T03:21:09;2.73;;;2.00;;
12818;SDS011;6474;53.474;9.894;2023-03-11T03:23:36;0.97;;;0.97;;
12818;SDS011;6474;53.474;9.894;2023-03-11T03:26:04;2.73;;;2.37;;
12818;SDS011;6474;53.474;9.894;2023-03-11T03:28:32;11.53;;;1.87;;
12818;SDS011;6474;53.474;9.894;2023-03-11T03:31:03;1.80;;;1.70;;
12818;SDS011;6474;53.474;9.894;2023-03-11T03:33:32;2.27;;;2.07;;
12818;SDS011;6474;53.474;9.894;2023-03-11T03:36:01;1.57;;;1.57;;
12818;SDS011;6474;53.474;9.894;2023-03-11T03:38:32;2.63;;;2.47;;
12818;SDS011;6474;53.474;9.894;2023-03-11T03:41:00;2.77;;;1.83;;
12818;SDS011;6474;53.474;9.894;2023-03-11T03:43:28;2.23;;;2.13;;
12818;SDS011;6474;53.474;9.894;2023-03-11T03:45:56;2.80;;;2.60;;
12818;SDS011;6474;53.474;9.894;2023-03-11T03:48:25;1.43;;;1.43;;
12818;SDS011;6474;53.474;9.894;2023-03-11T03:50:54;1.63;;;1.53;;
12818;SDS011;6474;53.474;9.894;2023-03-11T03:53:23;2.00;;;1.97;;
12818;SDS011;6474;53.474;9.894;2023-03-11T03:55:51;1.37;;;1.37;;
12818;SDS011;6474;53.474;9.894;2023-03-11T03:58:20;2.53;;;2.37;;
12818;SDS011;6474;53.474;9.894;2023-03-11T04:00:48;1.27;;;1.27;;
12818;SDS011;6474;53.474;9.894;2023-03-11T04:03:16;2.00;;;1.90;;
12818;SDS011;6474;53.474;9.894;2023-03-11T04:05:43;1.10;;;1.10;;
12818;SDS011;6474;53.474;9.894;2023-03-11T04:08:11;2.40;;;2.30;;
12818;SDS011;6474;53.474;9.894;2023-03-11T04:10:40;3.43;;;2.10;;
12818;SDS011;6474;53.474;9.894;2023-03-11T04:13:08;1.33;;;1.30;;
12818;SDS011;6474;53.474;9.894;2023-03-11T04:15:36;2.53;;;1.50;;
12818;SDS011;6474;53.474;9.894;2023-03-11T04:18:04;1.23;;;1.23;;
12818;SDS011;6474;53.474;9.894;2023-03-11T04:20:32;1.20;;;1.17;;
12818;SDS011;6474;53.474;9.894;2023-03-11T04:23:00;1.43;;;1.37;;
12818;SDS011;6474;53.474;9.894;2023-03-11T04:25:28;2.47;;;2.30;;
12818;SDS011;6474;53.474;9.894;2023-03-11T04:27:57;1.40;;;1.30;;
12818;SDS011;6474;53.474;9.894;2023-03-11T04:30:25;2.93;;;1.53;;
12818;SDS011;6474;53.474;9.894;2023-03-11T04:32:53;1.83;;;1.77;;
12818;SDS011;6474;53.474;9.894;2023-03-11T04:35:20;1.60;;;1.50;;
12818;SDS011;6474;53.474;9.894;2023-03-11T04:37:48;1.43;;;1.43;;
12818;SDS011;6474;53.474;9.894;2023-03-11T04:40:16;1.67;;;1.57;;
12818;SDS011;6474;53.474;9.894;2023-03-11T04:42:44;2.10;;;1.83;;
12818;SDS011;6474;53.474;9.894;2023-03-11T04:45:14;1.50;;;1.50;;
12818;SDS011;6474;53.474;9.894;2023-03-11T04:47:45;1.37;;;1.30;;
12818;SDS011;6474;53.474;9.894;2023-03-11T04:50:14;1.43;;;1.37;;
12818;SDS011;6474;53.474;9.894;2023-03-11T04:52:42;1.67;;;1.57;;
12818;SDS011;6474;53.474;9.894;2023-03-11T04:55:10;1.47;;;1.40;;
12818;SDS011;6474;53.474;9.894;2023-03-11T04:57:39;1.93;;;1.83;;
12818;SDS011;6474;53.474;9.894;2023-03-11T05:00:07;1.57;;;1.57;;
12818;SDS011;6474;53.474;9.894;2023-03-11T05:02:38;1.57;;;1.57;;
12818;SDS011;6474;53.474;9.894;2023-03-11T05:05:07;1.40;;;1.40;;
12818;SDS011;6474;53.474;9.894;2023-03-11T05:07:36;4.00;;;2.20;;
12818;SDS011;6474;53.474;9.894;2023-03-11T05:10:04;2.40;;;2.30;;
12818;SDS011;6474;53.474;9.894;2023-03-11T05:12:32;4.73;;;2.13;;
12818;SDS011;6474;53.474;9.894;2023-03-11T05:15:00;5.07;;;2.27;;
12818;SDS011;6474;53.474;9.894;2023-03-11T05:17:28;3.67;;;2.63;;
12818;SDS011;6474;53.474;9.894;2023-03-11T05:19:57;6.03;;;4.13;;
12818;SDS011;6474;53.474;9.894;2023-03-11T05:22:25;6.63;;;3.97;;
12818;SDS011;6474;53.474;9.894;2023-03-11T05:24:53;4.80;;;4.03;;
12818;SDS011;6474;53.474;9.894;2023-03-11T05:27:21;3.20;;;2.87;;
12818;SDS011;6474;53.474;9.894;2023-03-11T05:29:49;3.60;;;3.30;;
12818;SDS011;6474;53.474;9.894;2023-03-11T05:32:17;4.00;;;2.97;;
12818;SDS011;6474;53.474;9.894;2023-03-11T05:34:45;3.97;;;2.73;;
12818;SDS011;6474;53.474;9.894;2023-03-11T05:37:14;4.70;;;3.67;;
12818;SDS011;6474;53.474;9.894;2023-03-11T05:39:42;3.00;;;2.70;;
12818;SDS011;6474;53.474;9.894;2023-03-11T05:42:10;6.27;;;2.97;;
12818;SDS011;6474;53.474;9.894;2023-03-11T05:44:38;3.97;;;3.63;;
12818;SDS011;6474;53.474;9.894;2023-03-11T05:47:06;7.10;;;3.03;;
12818;SDS011;6474;53.474;9.894;2023-03-11T05:49:34;3.47;;;3.17;;
12818;SDS011;6474;53.474;9.894;2023-03-11T05:52:02;3.43;;;3.23;;
12818;SDS011;6474;53.474;9.894;2023-03-11T05:54:32;4.50;;;2.87;;
12818;SDS011;6474;53.474;9.894;2023-03-11T05:56:59;2.80;;;2.60;;
12818;SDS011;6474;53.474;9.894;2023-03-11T05:59:27;3.33;;;3.13;;
12818;SDS011;6474;53.474;9.894;2023-03-11T06:01:57;2.60;;;1.50;;
12818;SDS011;6474;53.474;9.894;2023-03-11T06:04:25;5.80;;;3.10;;
12818;SDS011;6474;53.474;9.894;2023-03-11T06:06:53;2.83;;;2.63;;
12818;SDS011;6474;53.474;9.894;2023-03-11T06:09:21;2.30;;;2.20;;
12818;SDS011;6474;53.474;9.894;2023-03-11T06:11:50;2.30;;;2.20;;
12818;SDS011;6474;53.474;9.894;2023-03-11T06:14:18;1.57;;;1.57;;
12818;SDS011;6474;53.474;9.894;2023-03-11T06:16:46;1.87;;;1.77;;
12818;SDS011;6474;53.474;9.894;2023-03-11T06:19:14;4.63;;;2.67;;
12818;SDS011;6474;53.474;9.894;2023-03-11T06:21:41;5.13;;;2.63;;
12818;SDS011;6474;53.474;9.894;2023-03-11T06:24:09;2.70;;;2.50;;
12818;SDS011;6474;53.474;9.894;2023-03-11T06:26:37;2.57;;;2.40;;
12818;SDS011;6474;53.474;9.894;2023-03-11T06:29:07;4.67;;;2.67;;
12818;SDS011;6474;53.474;9.894;2023-03-11T06:31:39;1.97;;;1.97;;
12818;SDS011;6474;53.474;9.894;2023-03-11T06:34:07;4.27;;;2.27;;
12818;SDS011;6474;53.474;9.894;2023-03-11T06:36:37;1.83;;;1.73;;
12818;SDS011;6474;53.474;9.894;2023-03-11T06:39:04;2.63;;;2.53;;
12818;SDS011;6474;53.474;9.894;2023-03-11T06:41:33;2.37;;;2.27;;
12818;SDS011;6474;53.474;9.894;2023-03-11T06:44:00;1.90;;;1.80;;
12818;SDS011;6474;53.474;9.894;2023-03-11T06:46:31;5.03;;;3.03;;
12818;SDS011;6474;53.474;9.894;2023-03-11T06:48:58;2.53;;;2.43;;
12818;SDS011;6474;53.474;9.894;2023-03-11T06:51:26;2.90;;;2.67;;
12818;SDS011;6474;53.474;9.894;2023-03-11T06:53:54;1.73;;;1.70;;
12818;SDS011;6474;53.474;9.894;2023-03-11T06:56:22;2.50;;;2.27;;
12818;SDS011;6474;53.474;9.894;2023-03-11T06:58:50;2.60;;;2.50;;
12818;SDS011;6474;53.474;9.894;2023-03-11T07:01:18;1.57;;;1.47;;
12818;SDS011;6474;53.474;9.894;2023-03-11T07:03:50;2.27;;;2.17;;
12818;SDS011;6474;53.474;9.894;2023-03-11T07:06:20;3.33;;;2.07;;
12818;SDS011;6474;53.474;9.894;2023-03-11T07:08:50;1.13;;;1.13;;
12818;SDS011;6474;53.474;9.894;2023-03-11T07:11:19;3.40;;;1.90;;
12818;SDS011;6474;53.474;9.894;2023-03-11T07:13:49;2.77;;;2.50;;
12818;SDS011;6474;53.474;9.894;2023-03-11T07:16:19;2.80;;;2.57;;
12818;SDS011;6474;53.474;9.894;2023-03-11T07:18:50;2.23;;;2.13;;
12818;SDS011;6474;53.474;9.894;2023-03-11T07:21:19;2.27;;;2.10;;
12818;SDS011;6474;53.474;9.894;2023-03-11T07:23:50;2.03;;;1.80;;
12818;SDS011;6474;53.474;9.894;2023-03-11T07:26:18;2.37;;;2.17;;
12818;SDS011;6474;53.474;9.894;2023-03-11T07:28:47;1.90;;;1.77;;
12818;SDS011;6474;53.474;9.894;2023-03-11T07:31:16;2.37;;;2.17;;
12818;SDS011;6474;53.474;9.894;2023-03-11T07:33:45;1.73;;;1.70;;
12818;SDS011;6474;53.474;9.894;2023-03-11T07:36:15;2.40;;;2.23;;
12818;SDS011;6474;53.474;9.894;2023-03-11T07:38:45;2.27;;;2.07;;
12818;SDS011;6474;53.474;9.894;2023-03-11T07:41:14;4.33;;;1.63;;
12818;SDS011;6474;53.474;9.894;2023-03-11T07:43:42;2.07;;;1.90;;
12818;SDS011;6474;53.474;9.894;2023-03-11T07:46:10;2.13;;;2.03;;
12818;SDS011;6474;53.474;9.894;2023-03-11T07:48:41;2.17;;;2.07;;
12818;SDS011;6474;53.474;9.894;2023-03-11T07:51:11;3.10;;;2.30;;
12818;SDS011;6474;53.474;9.894;2023-03-11T07:53:41;2.60;;;2.40;;
12818;SDS011;6474;53.474;9.894;2023-03-11T07:56:10;3.50;;;2.67;;
12818;SDS011;6474;53.474;9.894;2023-03-11T07:58:39;3.97;;;2.30;;
12818;SDS011;6474;53.474;9.894;2023-03-11T08:01:11;9.73;;;2.67;;
12818;SDS011;6474;53.474;9.894;2023-03-11T08:03:41;2.83;;;2.43;;
12818;SDS011;6474;53.474;9.894;2023-03-11T08:06:11;5.57;;;2.10;;
12818;SDS011;6474;53.474;9.894;2023-03-11T08:08:39;3.33;;;3.13;;
12818;SDS011;6474;53.474;9.894;2023-03-11T08:11:09;11.40;;;2.10;;
12818;SDS011;6474;53.474;9.894;2023-03-11T08:13:38;5.33;;;2.10;;
12818;SDS011;6474;53.474;9.894;2023-03-11T08:16:07;2.17;;;1.93;;
12818;SDS011;6474;53.474;9.894;2023-03-11T08:18:36;2.10;;;2.03;;
12818;SDS011;6474;53.474;9.894;2023-03-11T08:21:05;2.80;;;2.10;;
12818;SDS011;6474;53.474;9.894;2023-03-11T08:23:33;2.03;;;1.93;;
12818;SDS011;6474;53.474;9.894;2023-03-11T08:26:03;2.77;;;2.50;;
12818;SDS011;6474;53.474;9.894;2023-03-11T08:28:31;2.27;;;2.07;;
12818;SDS011;6474;53.474;9.894;2023-03-11T08:31:00;1.70;;;1.60;;
12818;SDS011;6474;53.474;9.894;2023-03-11T08:33:28;1.33;;;1.33;;
12818;SDS011;6474;53.474;9.894;2023-03-11T08:35:56;4.33;;;2.07;;
12818;SDS011;6474;53.474;9.894;2023-03-11T08:38:24;4.53;;;2.43;;
12818;SDS011;6474;53.474;9.894;2023-03-11T08:40:52;1.40;;;1.40;;
12818;SDS011;6474;53.474;9.894;2023-03-11T08:43:21;2.33;;;2.07;;
12818;SDS011;6474;53.474;9.894;2023-03-11T08:45:49;1.60;;;1.57;;
12818;SDS011;6474;53.474;9.894;2023-03-11T08:48:16;2.30;;;1.87;;
12818;SDS011;6474;53.474;9.894;2023-03-11T08:50:44;2.00;;;1.80;;
12818;SDS011;6474;53.474;9.894;2023-03-11T08:53:19;3.80;;;1.87;;
12818;SDS011;6474;53.474;9.894;2023-03-11T08:55:47;1.37;;;1.17;;
12818;SDS011;6474;53.474;9.894;2023-03-11T08:58:16;1.90;;;1.80;;
12818;SDS011;6474;53.474;9.894;2023-03-11T09:00:45;1.73;;;1.63;;
12818;SDS011;6474;53.474;9.894;2023-03-11T09:03:13;1.43;;;1.33;;
12818;SDS011;6474;53.474;9.894;2023-03-11T09:05:41;1.70;;;1.60;;
12818;SDS011;6474;53.474;9.894;2023-03-11T09:08:09;1.30;;;1.20;;
12818;SDS011;6474;53.474;9.894;2023-03-11T09:10:38;3.60;;;1.87;;
12818;SDS011;6474;53.474;9.894;2023-03-11T09:13:06;2.23;;;2.10;;
12818;SDS011;6474;53.474;9.894;2023-03-11T09:15:35;1.40;;;1.33;;
12818;SDS011;6474;53.474;9.894;2023-03-11T09:18:05;1.20;;;1.20;;
12818;SDS011;6474;53.474;9.894;2023-03-11T09:20:36;1.00;;;1.00;;
12818;SDS011;6474;53.474;9.894;2023-03-11T09:23:04;1.83;;;1.73;;
12818;SDS011;6474;53.474;9.894;2023-03-11T09:25:32;2.03;;;1.03;;
12818;SDS011;6474;53.474;9.894;2023-03-11T09:28:00;0.83;;;0.83;;
12818;SDS011;6474;53.474;9.894;2023-03-11T09:30:28;2.07;;;1.97;;
12818;SDS011;6474;53.474;9.894;2023-03-11T09:32:56;1.70;;;1.60;;
12818;SDS011;6474;53.474;9.894;2023-03-11T09:35:26;1.47;;;1.37;;
12818;SDS011;6474;53.474;9.894;2023-03-11T09:37:53;1.23;;;1.23;;
12818;SDS011;6474;53.474;9.894;2023-03-11T09:40:22;0.63;;;0.60;;
12818;SDS011;6474;53.474;9.894;2023-03-11T09:42:55;2.90;;;0.77;;
12818;SDS011;6474;53.474;9.894;2023-03-11T09:45:30;1.43;;;1.40;;
12818;SDS011;6474;53.474;9.894;2023-03-11T09:48:02;1.00;;;1.00;;
12818;SDS011;6474;53.474;9.894;2023-03-11T09:50:43;1.13;;;1.13;;
12818;SDS011;6474;53.474;9.894;2023-03-11T09:53:21;0.97;;;0.97;;
12818;SDS011;6474;53.474;9.894;2023-03-11T09:55:59;0.73;;;0.73;;
12818;SDS011;6474;53.474;9.894;2023-03-11T09:58:33;0.70;;;0.70;;
12818;SDS011;6474;53.474;9.894;2023-03-11T10:01:09;3.40;;;0.93;;
12818;SDS011;6474;53.474;9.894;2023-03-11T10:03:42;0.93;;;0.77;;
12818;SDS011;6474;53.474;9.894;2023-03-11T10:06:18;0.63;;;0.63;;
12818;SDS011;6474;53.474;9.894;2023-03-11T10:08:50;0.83;;;0.83;;
12818;SDS011;6474;53.474;9.894;2023-03-11T10:11:26;1.10;;;1.10;;
12818;SDS011;6474;53.474;9.894;2023-03-11T10:14:06;0.90;;;0.90;;
12818;SDS011;6474;53.474;9.894;2023-03-11T10:16:43;0.63;;;0.63;;
12818;SDS011;6474;53.474;9.894;2023-03-11T10:19:18;1.03;;;1.03;;
12818;SDS011;6474;53.474;9.894;2023-03-11T10:21:58;1.63;;;1.30;;
12818;SDS011;6474;53.474;9.894;2023-03-11T10:24:37;0.87;;;0.87;;
12818;SDS011;6474;53.474;9.894;2023-03-11T10:27:16;0.50;;;0.50;;
12818;SDS011;6474;53.474;9.894;2023-03-11T10:29:50;1.17;;;1.17;;
12818;SDS011;6474;53.474;9.894;2023-03-11T10:32:24;0.70;;;0.70;;
12818;SDS011;6474;53.474;9.894;2023-03-11T10:35:00;1.17;;;1.17;;
12818;SDS011;6474;53.474;9.894;2023-03-11T10:37:34;0.90;;;0.90;;
12818;SDS011;6474;53.474;9.894;2023-03-11T10:40:17;1.97;;;1.20;;
12818;SDS011;6474;53.474;9.894;2023-03-11T10:42:50;1.30;;;1.20;;
12818;SDS011;6474;53.474;9.894;2023-03-11T10:45:20;1.00;;;1.00;;
12818;SDS011;6474;53.474;9.894;2023-03-11T10:47:49;0.93;;;0.93;;
12818;SDS011;6474;53.474;9.894;2023-03-11T10:50:17;1.43;;;1.43;;
12818;SDS011;6474;53.474;9.894;2023-03-11T10:55:32;0.53;;;0.53;;
12818;SDS011;6474;53.474;9.894;2023-03-11T10:58:03;1.17;;;1.17;;
12818;SDS011;6474;53.474;9.894;2023-03-11T11:00:33;0.90;;;0.90;;
12818;SDS011;6474;53.474;9.894;2023-03-11T11:03:01;0.87;;;0.87;;
12818;SDS011;6474;53.474;9.894;2023-03-11T11:05:32;0.73;;;0.73;;
12818;SDS011;6474;53.474;9.894;2023-03-11T11:08:01;0.70;;;0.70;;
12818;SDS011;6474;53.474;9.894;2023-03-11T11:10:32;0.93;;;0.93;;
12818;SDS011;6474;53.474;9.894;2023-03-11T11:13:02;1.20;;;1.20;;
12818;SDS011;6474;53.474;9.894;2023-03-11T11:15:51;1.37;;;1.27;;
12818;SDS011;6474;53.474;9.894;2023-03-11T11:18:22;0.80;;;0.80;;
12818;SDS011;6474;53.474;9.894;2023-03-11T11:20:54;0.90;;;0.90;;
12818;SDS011;6474;53.474;9.894;2023-03-11T11:23:29;1.37;;;1.30;;
12818;SDS011;6474;53.474;9.894;2023-03-11T11:26:02;0.80;;;0.80;;
12818;SDS011;6474;53.474;9.894;2023-03-11T11:28:32;0.80;;;0.80;;
12818;SDS011;6474;53.474;9.894;2023-03-11T11:31:01;2.27;;;1.23;;
12818;SDS011;6474;53.474;9.894;2023-03-11T11:33:32;0.50;;;0.50;;
12818;SDS011;6474;53.474;9.894;2023-03-11T11:36:05;1.17;;;0.40;;
12818;SDS011;6474;53.474;9.894;2023-03-11T11:38:42;4.13;;;0.90;;
12818;SDS011;6474;53.474;9.894;2023-03-11T11:41:12;0.80;;;0.80;;
12818;SDS011;6474;53.474;9.894;2023-03-11T11:43:45;0.97;;;0.90;;
12818;SDS011;6474;53.474;9.894;2023-03-11T11:46:18;2.07;;;0.63;;
12818;SDS011;6474;53.474;9.894;2023-03-11T11:48:49;1.50;;;0.83;;
12818;SDS011;6474;53.474;9.894;2023-03-11T11:51:23;0.60;;;0.60;;
12818;SDS011;6474;53.474;9.894;2023-03-11T11:53:57;2.67;;;1.10;;
12818;SDS011;6474;53.474;9.894;2023-03-11T11:56:30;0.60;;;0.60;;
12818;SDS011;6474;53.474;9.894;2023-03-11T11:58:58;0.70;;;0.70;;
12818;SDS011;6474;53.474;9.894;2023-03-11T12:01:29;0.50;;;0.50;;
12818;SDS011;6474;53.474;9.894;2023-03-11T12:07:00;0.80;;;0.80;;
12818;SDS011;6474;53.474;9.894;2023-03-11T12:09:42;0.63;;;0.63;;
12818;SDS011;6474;53.474;9.894;2023-03-11T12:12:20;0.90;;;0.90;;
12818;SDS011;6474;53.474;9.894;2023-03-11T12:14:58;1.07;;;1.07;;
12818;SDS011;6474;53.474;9.894;2023-03-11T12:17:33;1.90;;;1.03;;
12818;SDS011;6474;53.474;9.894;2023-03-11T12:20:08;2.80;;;1.03;;
12818;SDS011;6474;53.474;9.894;2023-03-11T12:22:44;1.43;;;0.60;;
12818;SDS011;6474;53.474;9.894;2023-03-11T12:25:28;1.90;;;0.90;;
12818;SDS011;6474;53.474;9.894;2023-03-11T12:28:03;1.00;;;1.00;;
12818;SDS011;6474;53.474;9.894;2023-03-11T12:30:43;0.43;;;0.43;;
12818;SDS011;6474;53.474;9.894;2023-03-11T12:33:17;0.87;;;0.80;;
12818;SDS011;6474;53.474;9.894;2023-03-11T12:35:54;0.57;;;0.57;;
12818;SDS011;6474;53.474;9.894;2023-03-11T12:38:26;0.63;;;0.63;;
12818;SDS011;6474;53.474;9.894;2023-03-11T12:41:03;0.57;;;0.57;;
12818;SDS011;6474;53.474;9.894;2023-03-11T12:49:26;0.50;;;0.50;;
12818;SDS011;6474;53.474;9.894;2023-03-11T12:51:59;0.70;;;0.70;;
12818;SDS011;6474;53.474;9.894;2023-03-11T12:54:29;0.93;;;0.90;;
12818;SDS011;6474;53.474;9.894;2023-03-11T12:57:00;0.50;;;0.50;;
12818;SDS011;6474;53.474;9.894;2023-03-11T12:59:54;0.63;;;0.63;;
12818;SDS011;6474;53.474;9.894;2023-03-11T13:02:48;0.70;;;0.70;;
12818;SDS011;6474;53.474;9.894;2023-03-11T13:05:38;0.80;;;0.80;;
12818;SDS011;6474;53.474;9.894;2023-03-11T13:08:18;0.70;;;0.70;;
12818;SDS011;6474;53.474;9.894;2023-03-11T13:10:48;0.57;;;0.57;;
12818;SDS011;6474;53.474;9.894;2023-03-11T13:13:38;0.93;;;0.60;;
12818;SDS011;6474;53.474;9.894;2023-03-11T13:22:00;0.50;;;0.50;;
12818;SDS011;6474;53.474;9.894;2023-03-11T13:24:38;0.57;;;0.57;;
12818;SDS011;6474;53.474;9.894;2023-03-11T13:27:15;0.70;;;0.70;;
12818;SDS011;6474;53.474;9.894;2023-03-11T13:29:56;0.40;;;0.40;;
12818;SDS011;6474;53.474;9.894;2023-03-11T13:32:35;0.33;;;0.33;;
12818;SDS011;6474;53.474;9.894;2023-03-11T13:35:43;0.50;;;0.50;;
12818;SDS011;6474;53.474;9.894;2023-03-11T13:38:40;0.40;;;0.40;;
12818;SDS011;6474;53.474;9.894;2023-03-11T13:41:26;0.80;;;0.80;;
12818;SDS011;6474;53.474;9.894;2023-03-11T13:43:58;1.23;;;0.63;;
12818;SDS011;6474;53.474;9.894;2023-03-11T13:46:38;0.40;;;0.37;;
12818;SDS011;6474;53.474;9.894;2023-03-11T13:49:11;0.40;;;0.40;;
12818;SDS011;6474;53.474;9.894;2023-03-11T13:51:49;0.50;;;0.50;;
12818;SDS011;6474;53.474;9.894;2023-03-11T13:54:23;0.80;;;0.80;;
12818;SDS011;6474;53.474;9.894;2023-03-11T13:57:01;0.67;;;0.53;;
12818;SDS011;6474;53.474;9.894;2023-03-11T13:59:30;0.93;;;0.40;;
12818;SDS011;6474;53.474;9.894;2023-03-11T14:02:10;0.43;;;0.43;;
12818;SDS011;6474;53.474;9.894;2023-03-11T14:04:46;0.40;;;0.40;;
12818;SDS011;6474;53.474;9.894;2023-03-11T14:07:19;4.00;;;0.63;;
12818;SDS011;6474;53.474;9.894;2023-03-11T14:12:49;0.23;;;0.23;;
12818;SDS011;6474;53.474;9.894;2023-03-11T14:15:19;0.50;;;0.50;;
12818;SDS011;6474;53.474;9.894;2023-03-11T14:17:53;0.97;;;0.70;;
12818;SDS011;6474;53.474;9.894;2023-03-11T14:20:43;0.20;;;0.20;;
12818;SDS011;6474;53.474;9.894;2023-03-11T14:23:15;0.63;;;0.63;;
12818;SDS011;6474;53.474;9.894;2023-03-11T14:25:45;1.70;;;0.63;;
12818;SDS011;6474;53.474;9.894;2023-03-11T14:28:16;0.23;;;0.23;;
12818;SDS011;6474;53.474;9.894;2023-03-11T14:30:54;0.47;;;0.47;;
12818;SDS011;6474;53.474;9.894;2023-03-11T14:33:24;0.70;;;0.70;;
12818;SDS011;6474;53.474;9.894;2023-03-11T14:35:52;0.57;;;0.57;;
12818;SDS011;6474;53.474;9.894;2023-03-11T14:38:22;0.30;;;0.30;;
12818;SDS011;6474;53.474;9.894;2023-03-11T14:40:51;0.40;;;0.40;;
12818;SDS011;6474;53.474;9.894;2023-03-11T14:43:21;0.40;;;0.40;;
12818;SDS011;6474;53.474;9.894;2023-03-11T14:45:49;0.57;;;0.57;;
12818;SDS011;6474;53.474;9.894;2023-03-11T14:48:22;4.37;;;0.50;;
12818;SDS011;6474;53.474;9.894;2023-03-11T14:50:55;2.20;;;0.20;;
12818;SDS011;6474;53.474;9.894;2023-03-11T14:53:26;0.30;;;0.30;;
12818;SDS011;6474;53.474;9.894;2023-03-11T14:55:59;2.00;;;0.40;;
12818;SDS011;6474;53.474;9.894;2023-03-11T14:58:30;0.23;;;0.23;;
12818;SDS011;6474;53.474;9.894;2023-03-11T15:01:01;0.93;;;0.70;;
12818;SDS011;6474;53.474;9.894;2023-03-11T15:03:34;0.73;;;0.20;;
12818;SDS011;6474;53.474;9.894;2023-03-11T15:06:06;0.50;;;0.50;;
12818;SDS011;6474;53.474;9.894;2023-03-11T15:08:36;1.03;;;0.90;;
12818;SDS011;6474;53.474;9.894;2023-03-11T15:11:19;1.90;;;0.90;;
12818;SDS011;6474;53.474;9.894;2023-03-11T15:13:50;0.40;;;0.40;;
12818;SDS011;6474;53.474;9.894;2023-03-11T15:16:21;0.40;;;0.40;;
12818;SDS011;6474;53.474;9.894;2023-03-11T15:18:54;0.33;;;0.30;;
12818;SDS011;6474;53.474;9.894;2023-03-11T15:21:22;0.43;;;0.43;;
12818;SDS011;6474;53.474;9.894;2023-03-11T15:23:59;0.40;;;0.40;;
12818;SDS011;6474;53.474;9.894;2023-03-11T15:26:31;0.50;;;0.50;;
12818;SDS011;6474;53.474;9.894;2023-03-11T15:29:02;0.53;;;0.53;;
12818;SDS011;6474;53.474;9.894;2023-03-11T15:31:38;2.00;;;0.40;;
12818;SDS011;6474;53.474;9.894;2023-03-11T15:34:19;0.33;;;0.33;;
12818;SDS011;6474;53.474;9.894;2023-03-11T15:36:55;0.37;;;0.37;;
12818;SDS011;6474;53.474;9.894;2023-03-11T15:39:27;0.27;;;0.27;;
12818;SDS011;6474;53.474;9.894;2023-03-11T15:42:11;1.03;;;0.50;;
12818;SDS011;6474;53.474;9.894;2023-03-11T15:44:41;0.50;;;0.50;;